Etusivu
METAR-TAF:

METAR-TAF

Lentoasemat :

Ciudad Juárez, Meksiko

Leveyspiiri: 31-38N, Pituuspiiri: 106-26W, korkeus merenpinnasta: 1171 m

Tämänhetkinen sää

Tämä raportti tehtiin 10 tuntia ja 5 minuuttia sitten, kello 02.41 UTC
Tuuli 3 kn etelästä/lounaasta
Lämpötila 14°C
Kosteus 18%
Ilmanpaine 1019 hPa
Näkyvyys: 16.1 km
selkeää

METAR: MMCS 290241Z 21003KT 10SM SKC 14/M10 A3009 RMK SLP152 53005 941

Aika: 05:46 (12:46 UTC)

Sääennuste

Tämä raportti tehtiin 7 tuntia ja 33 minuuttia sitten, kello 05.13 UTC
Ennuste voimassa 29. päivästä klo 06 UTC - 30. päivään klo 06 UTC
Tuuli 5 kn etelästä/lounaasta
Näkyvyys: 10 km
selkeää
From 29. päivästä klo 1800 UTC
Tuuli 10 kn etelästä
Näkyvyys: 10 km
Hajanaisia pilviä 25000 ft:n korkeudessa
From 30. päivästä klo 0500 UTC
Tuuli 5 kn etelästä
Näkyvyys: 10 km
selkeää

TAF: MMCS 290513Z 2906/3006 21005KT P6SM SKC FM291800 18010KT P6SM SCT250 FM300500 19005KT P6SM SKC

Säähavainnot ja -ennusteet yli 4000 lentoasemalta (METAR- ja TAF-raportit).

Käytössä olevat sääasemat on merkitty karttaan keltaisilla ja punaisilla pisteillä.

Aseta hiiri pisteen päälle nähdäksesi sääaseman nimen.

Klikkaa sitten nähdäksesi säähavainnot ja -ennusteet.

Kartan vaihtaminen: klikkaa mustalla rastilla varustettuja vihreitä pisteitä, niin voit zoomata sisään; viivalla varustettua vihreää pistettä, niin voit zoomata ulos tai vihreitä nuolia, niin pääset viereisille kartoille.


METAR-TAF: